Time;durP1;ratioP1;P1;durP2;ratioP2;P2;SDS_P1;SDS_P2;PMS_P1;PMS_P2;Temp;Humidity;BMP_temperature;BMP_pressure;BME280_temperature;BME280_humidity;BME280_pressure;Samples;Min_cycle;Max_cycle;Signal;HPM_P1;HPM_P2
2021/03/27 00:01:33;;;;;;;52.97;35.00;;;8.40;99.90;;;;;;5055248;28;20476;-94
2021/03/27 00:04:05;;;;;;;50.47;35.67;;;8.30;99.90;;;;;;5056331;28;20448;-96
2021/03/27 00:06:38;;;;;;;51.07;35.53;;;8.30;99.90;;;;;;5056005;28;20448;-95
2021/03/27 00:09:14;;;;;;;50.60;34.63;;;8.30;99.90;;;;;;5055849;28;20452;-95
2021/03/27 00:11:46;;;;;;;48.17;34.23;;;8.30;99.90;;;;;;5057077;28;20452;-95
2021/03/27 00:14:16;;;;;;;47.80;33.47;;;8.30;99.90;;;;;;5059360;28;20977;-94
2021/03/27 00:16:49;;;;;;;52.07;37.20;;;8.30;99.90;;;;;;5059132;28;20451;-96
2021/03/27 00:19:23;;;;;;;59.13;37.90;;;8.30;99.90;;;;;;5055105;28;20802;-94
2021/03/27 00:21:54;;;;;;;57.70;41.43;;;8.30;99.90;;;;;;5055188;28;20487;-92
2021/03/27 00:24:26;;;;;;;62.47;42.20;;;8.30;99.90;;;;;;5055265;28;20452;-94
2021/03/27 00:26:57;;;;;;;63.37;43.10;;;8.30;99.90;;;;;;5055158;28;20456;-93
2021/03/27 00:29:28;;;;;;;54.43;41.60;;;8.30;99.90;;;;;;5054868;28;20459;-93
2021/03/27 00:31:59;;;;;;;58.37;41.90;;;8.30;99.90;;;;;;5054845;28;20448;-92
2021/03/27 00:34:32;;;;;;;57.07;39.80;;;8.30;99.90;;;;;;5054261;28;21012;-90
2021/03/27 00:37:04;;;;;;;54.60;39.53;;;8.20;99.90;;;;;;5053917;28;20561;-88
2021/03/27 00:39:38;;;;;;;53.13;36.93;;;8.20;99.90;;;;;;5053607;28;20447;-88
2021/03/27 00:42:07;;;;;;;57.80;37.90;;;8.20;99.90;;;;;;5053348;28;20480;-87
2021/03/27 00:44:38;;;;;;;51.00;37.80;;;8.20;99.90;;;;;;5053032;28;20906;-87
2021/03/27 00:47:07;;;;;;;52.47;35.20;;;8.20;99.90;;;;;;5053052;28;20520;-88
2021/03/27 00:49:42;;;;;;;48.55;36.03;;;8.20;99.90;;;;;;5053983;28;20463;-92
2021/03/27 00:52:11;;;;;;;49.00;34.83;;;8.20;99.90;;;;;;5054286;28;20185;-93
2021/03/27 00:54:46;;;;;;;59.50;34.80;;;8.20;99.90;;;;;;5054819;28;20538;-92
2021/03/27 00:57:17;;;;;;;46.55;34.20;;;8.20;99.90;;;;;;5054711;28;20483;-93
2021/03/27 00:59:55;;;;;;;50.17;34.40;;;8.20;99.90;;;;;;5054201;28;20199;-92
2021/03/27 01:02:22;;;;;;;52.13;34.40;;;8.20;99.90;;;;;;5054530;28;20488;-92
2021/03/27 01:04:51;;;;;;;46.83;32.93;;;8.30;99.90;;;;;;5052979;28;20504;-93
2021/03/27 01:07:20;;;;;;;49.27;33.33;;;8.30;99.90;;;;;;5053858;28;20550;-93
2021/03/27 01:09:50;;;;;;;53.20;35.03;;;8.40;99.90;;;;;;5053698;28;20448;-94
2021/03/27 01:12:32;;;;;;;51.13;35.70;;;8.40;99.90;;;;;;5054126;28;20452;-91
2021/03/27 01:15:03;;;;;;;48.37;34.50;;;8.50;99.90;;;;;;5053661;28;20502;-92
2021/03/27 01:17:33;;;;;;;43.13;33.23;;;8.50;99.90;;;;;;5053607;28;20453;-93
2021/03/27 01:20:06;;;;;;;55.27;35.47;;;8.60;99.90;;;;;;5054110;28;20834;-93
2021/03/27 01:22:32;;;;;;;46.90;33.10;;;8.70;99.90;;;;;;5054067;28;20472;-94
2021/03/27 01:25:02;;;;;;;50.50;34.40;;;8.70;99.90;;;;;;5054417;28;20452;-94
2021/03/27 01:27:31;;;;;;;45.10;31.60;;;8.80;99.90;;;;;;5054612;28;20919;-94
2021/03/27 01:30:02;;;;;;;47.07;32.50;;;8.70;99.90;;;;;;5053757;28;20444;-92
2021/03/27 01:32:38;;;;;;;43.70;32.13;;;8.70;99.90;;;;;;5053287;28;20480;-92
2021/03/27 01:35:12;;;;;;;45.20;31.67;;;8.70;99.90;;;;;;5053694;28;21141;-91
2021/03/27 01:37:44;;;;;;;42.47;31.20;;;8.70;99.90;;;;;;5053551;28;20796;-90
2021/03/27 01:40:26;;;;;;;44.13;32.77;;;8.70;99.90;;;;;;5051680;28;20448;-89
2021/03/27 01:43:01;;;;;;;41.07;30.03;;;8.70;99.90;;;;;;5051931;28;20511;-91
2021/03/27 01:45:54;;;;;;;44.20;32.23;;;8.70;99.90;;;;;;5053233;28;20487;-91
2021/03/27 01:48:30;;;;;;;41.23;31.23;;;8.60;99.90;;;;;;5047101;28;20486;-91
2021/03/27 01:51:01;;;;;;;43.07;30.93;;;8.60;99.90;;;;;;5053291;28;20816;-91
2021/03/27 01:53:34;;;;;;;39.80;30.40;;;8.50;99.90;;;;;;5053715;28;20551;-92
2021/03/27 01:56:19;;;;;;;46.07;33.37;;;8.40;99.90;;;;;;5052846;28;20531;-93
2021/03/27 01:58:52;;;;;;;42.23;31.33;;;8.40;99.90;;;;;;5054494;28;20826;-93
2021/03/27 02:01:22;;;;;;;49.07;34.37;;;8.40;99.90;;;;;;5055111;28;20472;-93
2021/03/27 02:04:01;;;;;;;45.53;34.50;;;8.30;99.90;;;;;;5054682;28;20448;-92
2021/03/27 02:06:31;;;;;;;50.97;36.10;;;8.30;99.90;;;;;;5052576;28;20472;-94
2021/03/27 02:09:06;;;;;;;48.90;36.33;;;8.30;99.90;;;;;;5054044;28;20472;-95
2021/03/27 02:11:47;;;;;;;53.53;37.50;;;8.20;99.90;;;;;;5037126;28;20816;-93
2021/03/27 02:14:18;;;;;;;50.77;37.10;;;8.20;99.90;;;;;;5053436;28;20490;-92
2021/03/27 02:16:50;;;;;;;52.37;36.30;;;8.20;99.90;;;;;;5054771;28;20452;-92
2021/03/27 02:19:34;;;;;;;56.88;37.80;;;8.20;99.90;;;;;;5057337;28;20483;-92
2021/03/27 02:22:16;;;;;;;53.73;37.20;;;8.20;99.90;;;;;;5056097;28;20209;-90
2021/03/27 02:24:55;;;;;;;51.53;37.38;;;8.20;99.90;;;;;;5056108;28;20447;-90
2021/03/27 02:27:27;;;;;;;52.73;37.73;;;8.20;99.90;;;;;;5055520;28;20186;-90
2021/03/27 02:30:12;;;;;;;53.55;38.83;;;8.20;99.90;;;;;;5055923;28;20812;-91
2021/03/27 02:32:48;;;;;;;56.00;37.60;;;8.10;99.90;;;;;;5055411;28;20276;-92
2021/03/27 02:35:22;;;;;;;50.03;36.20;;;8.10;99.90;;;;;;5056489;28;20809;-92
2021/03/27 02:38:01;;;;;;;49.37;35.20;;;8.10;99.90;;;;;;5056282;28;20445;-90
2021/03/27 02:40:34;;;;;;;47.30;32.23;;;8.00;99.90;;;;;;5044878;28;20539;-90
2021/03/27 02:43:05;;;;;;;42.20;30.20;;;8.00;99.90;;;;;;5039757;28;20488;-90
2021/03/27 02:45:37;;;;;;;45.50;29.47;;;8.00;99.90;;;;;;5056176;28;20448;-90
2021/03/27 02:48:19;;;;;;;40.30;29.40;;;8.00;99.90;;;;;;5055991;28;20494;-89
2021/03/27 02:50:57;;;;;;;40.43;27.60;;;8.00;99.90;;;;;;5055684;28;20469;-88
2021/03/27 02:53:28;;;;;;;36.77;26.53;;;7.90;99.90;;;;;;5055573;28;20444;-90
2021/03/27 02:56:19;;;;;;;37.53;27.70;;;7.90;99.90;;;;;;5055875;28;20476;-90
2021/03/27 02:59:02;;;;;;;40.13;28.70;;;8.00;99.90;;;;;;5056060;28;20448;-90
2021/03/27 03:01:32;;;;;;;41.00;27.60;;;8.00;99.90;;;;;;5055522;28;20455;-90
2021/03/27 03:04:05;;;;;;;39.93;28.77;;;8.00;99.90;;;;;;5055578;28;20451;-89
2021/03/27 03:06:40;;;;;;;42.53;27.30;;;8.10;99.90;;;;;;5056780;28;20449;-95
2021/03/27 03:09:13;;;;;;;36.13;26.00;;;8.20;99.90;;;;;;5057147;28;20452;-95
2021/03/27 03:11:48;;;;;;;37.97;25.97;;;8.30;99.90;;;;;;5037037;28;20930;-95
2021/03/27 03:14:21;;;;;;;33.00;25.70;;;8.30;99.90;;;;;;5037067;28;20449;-95
2021/03/27 03:16:59;;;;;;;37.97;26.53;;;8.40;99.90;;;;;;5036890;28;20453;-94
2021/03/27 03:19:30;;;;;;;37.93;26.87;;;8.40;99.90;;;;;;5036967;28;20492;-96
2021/03/27 03:22:06;;;;;;;35.13;26.20;;;8.50;99.90;;;;;;5036714;28;20465;-94
2021/03/27 03:24:36;;;;;;;34.03;25.30;;;8.50;99.90;;;;;;5042309;28;20818;-93
2021/03/27 03:27:10;;;;;;;36.63;26.20;;;8.50;99.90;;;;;;5039022;28;20460;-93
2021/03/27 03:29:48;;;;;;;37.40;26.17;;;8.60;99.90;;;;;;5035946;28;20450;-94
2021/03/27 03:32:24;;;;;;;38.13;26.58;;;8.70;99.90;;;;;;5036897;28;20554;-90
2021/03/27 03:35:12;;;;;;;33.03;24.83;;;8.70;99.90;;;;;;5047161;28;20281;-92
2021/03/27 03:37:56;;;;;;;34.10;24.93;;;8.80;99.90;;;;;;5039533;28;20527;-92
2021/03/27 03:40:32;;;;;;;38.20;25.93;;;8.90;99.90;;;;;;5056126;28;20449;-94
2021/03/27 03:43:16;;;;;;;31.00;23.70;;;9.00;99.90;;;;;;5056064;28;21056;-93
2021/03/27 03:46:10;;;;;;;32.47;23.73;;;9.10;99.90;;;;;;5056019;28;20516;-89
2021/03/27 03:48:49;;;;;;;34.57;24.53;;;9.10;99.90;;;;;;5055400;28;20452;-90
2021/03/27 03:51:24;;;;;;;35.53;25.27;;;9.20;99.90;;;;;;5054969;28;20934;-91
2021/03/27 03:54:07;;;;;;;33.30;24.20;;;9.20;99.90;;;;;;5055705;28;20481;-95
2021/03/27 03:56:45;;;;;;;32.73;24.80;;;9.20;99.90;;;;;;5064881;28;20542;-95
2021/03/27 03:59:31;;;;;;;30.50;24.87;;;9.20;99.90;;;;;;5062308;28;20447;-94
2021/03/27 04:02:02;;;;;;;33.83;24.23;;;9.20;99.90;;;;;;5058459;28;20468;-94
2021/03/27 04:04:34;;;;;;;31.97;23.70;;;9.20;99.90;;;;;;5057596;28;21025;-95
2021/03/27 04:07:04;;;;;;;32.93;23.57;;;9.20;99.90;;;;;;5057004;28;20479;-95
2021/03/27 04:09:37;;;;;;;34.90;26.23;;;9.20;99.90;;;;;;5056383;28;20451;-94
2021/03/27 04:12:13;;;;;;;32.27;22.17;;;9.20;99.90;;;;;;5055420;28;20448;-95
2021/03/27 04:15:07;;;;;;;34.53;24.10;;;9.20;99.90;;;;;;5053507;28;21155;-93
2021/03/27 04:17:43;;;;;;;29.00;22.40;;;9.30;99.90;;;;;;5050955;28;20900;-93
2021/03/27 04:20:14;;;;;;;33.30;23.73;;;9.30;99.90;;;;;;5056356;28;20471;-95
2021/03/27 04:22:45;;;;;;;34.87;25.13;;;9.30;99.90;;;;;;5054103;28;20851;-89
2021/03/27 04:25:24;;;;;;;31.47;23.37;;;9.30;99.90;;;;;;5053908;28;20456;-89
2021/03/27 04:27:55;;;;;;;31.73;24.20;;;9.30;99.90;;;;;;5053928;28;20456;-89
2021/03/27 04:30:32;;;;;;;32.90;24.70;;;9.30;99.90;;;;;;5053472;28;20510;-89
2021/03/27 04:33:07;;;;;;;35.50;25.40;;;9.30;99.90;;;;;;5054880;28;20851;-89
2021/03/27 04:35:52;;;;;;;32.07;23.23;;;9.30;99.90;;;;;;5053940;28;21018;-90
2021/03/27 04:38:27;;;;;;;32.60;23.60;;;9.30;99.90;;;;;;5054279;28;20490;-91
2021/03/27 04:41:03;;;;;;;29.17;21.40;;;9.30;99.90;;;;;;5053472;28;20455;-90
2021/03/27 04:43:32;;;;;;;30.40;21.60;;;9.30;99.90;;;;;;5054348;28;20476;-94
2021/03/27 04:46:08;;;;;;;30.50;21.93;;;9.40;99.90;;;;;;5056134;28;20448;-94
2021/03/27 04:48:39;;;;;;;34.30;23.50;;;9.40;99.90;;;;;;5054378;28;20483;-94
2021/03/27 04:51:26;;;;;;;30.90;23.20;;;9.40;99.90;;;;;;5056416;28;20459;-94
2021/03/27 04:53:57;;;;;;;38.33;23.90;;;9.40;99.90;;;;;;5055664;28;20455;-94
2021/03/27 04:56:31;;;;;;;30.93;22.50;;;9.20;99.90;;;;;;5055028;28;20456;-93
2021/03/27 04:59:05;;;;;;;32.47;23.70;;;9.20;99.90;;;;;;5054610;28;20539;-94
2021/03/27 05:01:44;;;;;;;29.93;22.40;;;9.10;99.90;;;;;;5054743;28;20448;-93
2021/03/27 05:04:16;;;;;;;30.57;23.00;;;9.00;99.90;;;;;;5054901;28;20440;-93
2021/03/27 05:06:48;;;;;;;31.87;24.27;;;8.90;99.90;;;;;;5054970;28;20480;-95
2021/03/27 05:09:36;;;;;;;31.87;24.00;;;8.80;99.90;;;;;;5055088;28;20539;-89
2021/03/27 05:12:10;;;;;;;32.63;23.60;;;8.80;99.90;;;;;;5053526;28;20455;-93
2021/03/27 05:15:06;;;;;;;30.10;23.13;;;8.70;99.90;;;;;;5055492;28;20463;-95
2021/03/27 05:18:08;;;;;;;30.83;24.00;;;8.70;99.90;;;;;;5054253;28;20444;-94
2021/03/27 05:20:38;;;;;;;32.80;23.67;;;8.70;99.90;;;;;;5052979;28;20487;-93
2021/03/27 05:23:13;;;;;;;36.77;25.17;;;8.70;99.90;;;;;;5053170;28;20491;-91
2021/03/27 05:26:03;;;;;;;33.63;23.13;;;8.70;99.90;;;;;;5053804;28;20452;-92
2021/03/27 05:28:48;;;;;;;29.43;22.63;;;8.80;99.90;;;;;;5032094;28;20508;-88
2021/03/27 05:31:26;;;;;;;32.40;23.60;;;8.90;99.90;;;;;;5033288;28;20454;-88
2021/03/27 05:34:05;;;;;;;27.00;21.87;;;9.10;99.90;;;;;;5036514;28;20634;-88
2021/03/27 05:36:41;;;;;;;27.40;21.90;;;9.20;99.90;;;;;;5033519;28;20449;-95
2021/03/27 05:39:29;;;;;;;32.83;22.37;;;9.40;99.90;;;;;;5037763;28;20445;-95
2021/03/27 05:42:46;;;;;;;28.93;22.70;;;9.60;99.90;;;;;;5034986;28;20559;-87
2021/03/27 05:45:53;;;;;;;29.03;22.03;;;9.70;99.90;;;;;;5008805;28;20457;-87
2021/03/27 05:49:02;;;;;;;28.40;22.40;;;10.00;99.90;;;;;;5051612;28;20495;-87
2021/03/27 05:52:08;;;;;;;26.07;19.67;;;10.20;99.90;;;;;;5042299;28;20440;-94
2021/03/27 05:54:54;;;;;;;27.30;20.20;;;10.50;99.90;;;;;;5057507;28;20526;-91
2021/03/27 05:57:34;;;;;;;31.03;21.80;;;10.60;99.90;;;;;;5043292;28;20460;-90
2021/03/27 06:00:27;;;;;;;23.37;20.03;;;10.80;99.90;;;;;;5056812;28;20448;-91
2021/03/27 06:03:18;;;;;;;27.10;19.33;;;10.90;99.90;;;;;;5055982;28;20484;-91
2021/03/27 06:06:28;;;;;;;27.03;19.70;;;11.00;99.90;;;;;;5036956;28;20460;-92
2021/03/27 06:09:17;;;;;;;26.93;20.80;;;11.10;99.90;;;;;;5050925;28;20845;-92
2021/03/27 06:11:51;;;;;;;29.10;18.87;;;11.20;99.90;;;;;;5056720;28;20455;-91
2021/03/27 06:14:35;;;;;;;27.63;19.37;;;11.30;99.90;;;;;;5056304;28;20439;-89
2021/03/27 06:17:27;;;;;;;23.50;18.50;;;11.30;99.90;;;;;;5056389;28;20535;-90
2021/03/27 06:20:32;;;;;;;21.50;17.97;;;11.40;99.90;;;;;;5042084;28;20527;-90
2021/03/27 06:23:25;;;;;;;24.57;17.80;;;11.50;99.90;;;;;;5056347;28;20518;-92
2021/03/27 06:26:22;;;;;;;22.33;16.63;;;11.60;99.90;;;;;;5048286;28;20967;-96
2021/03/27 06:29:40;;;;;;;24.17;18.57;;;11.50;99.90;;;;;;5055955;28;20448;-94
2021/03/27 06:32:40;;;;;;;20.77;18.07;;;11.40;99.90;;;;;;5014958;28;20984;-94
2021/03/27 06:35:20;;;;;;;22.93;18.90;;;11.30;99.90;;;;;;5056535;28;20965;-95
2021/03/27 06:38:17;;;;;;;24.90;18.90;;;11.40;99.90;;;;;;5065036;28;20456;-96
2021/03/27 06:41:16;;;;;;;21.50;16.90;;;11.40;99.90;;;;;;5073317;28;20440;-96
2021/03/27 06:43:51;;;;;;;23.87;16.27;;;11.50;99.90;;;;;;5045736;28;20475;-92
2021/03/27 06:46:30;;;;;;;18.77;16.77;;;11.70;99.90;;;;;;5064301;28;20478;-96
2021/03/27 06:49:34;;;;;;;24.83;18.23;;;12.10;99.90;;;;;;5066812;28;20444;-96
2021/03/27 06:52:44;;;;;;;19.23;15.17;;;12.40;99.90;;;;;;5059289;28;20978;-90
2021/03/27 06:55:41;;;;;;;20.50;15.00;;;12.80;99.90;;;;;;5055793;28;20514;-91
2021/03/27 06:58:38;;;;;;;17.03;15.23;;;13.20;99.90;;;;;;5041268;28;20445;-88
2021/03/27 07:01:48;;;;;;;19.27;16.10;;;13.40;99.90;;;;;;5023477;28;20472;-92
2021/03/27 07:04:45;;;;;;;16.43;14.10;;;13.50;99.90;;;;;;5053738;28;20456;-93
2021/03/27 07:07:32;;;;;;;18.33;14.40;;;13.50;99.90;;;;;;5052642;28;20468;-91
2021/03/27 07:10:31;;;;;;;19.73;13.80;;;13.40;99.90;;;;;;5051718;28;20815;-89
2021/03/27 07:13:45;;;;;;;17.00;13.70;;;13.40;99.90;;;;;;5050325;28;20452;-94
2021/03/27 07:16:26;;;;;;;20.17;13.37;;;13.50;99.90;;;;;;4993460;28;20526;-95
2021/03/27 07:19:30;;;;;;;14.80;12.80;;;13.50;99.90;;;;;;5058092;28;20465;-96
2021/03/27 07:22:26;;;;;;;19.57;13.97;;;13.50;99.90;;;;;;5015463;28;20488;-95
2021/03/27 07:25:30;;;;;;;17.43;13.73;;;13.40;99.90;;;;;;5054176;28;20456;-95
2021/03/27 07:28:33;;;;;;;17.43;13.23;;;13.10;99.90;;;;;;5052089;28;20586;-93
2021/03/27 07:31:34;;;;;;;16.50;13.20;;;12.80;99.90;;;;;;5054719;28;20448;-91
2021/03/27 07:34:39;;;;;;;14.07;12.07;;;12.50;99.90;;;;;;5048100;28;20444;-91
2021/03/27 07:37:44;;;;;;;14.20;11.77;;;12.30;99.90;;;;;;5036519;28;20489;-92
2021/03/27 07:40:36;;;;;;;15.67;11.20;;;12.10;99.90;;;;;;5043418;28;20527;-91
2021/03/27 07:43:31;;;;;;;13.40;10.73;;;12.10;99.90;;;;;;5035082;28;20477;-92
2021/03/27 07:46:21;;;;;;;13.80;10.13;;;12.10;99.90;;;;;;5035458;28;20476;-91
2021/03/27 07:49:17;;;;;;;13.40;10.20;;;12.10;99.90;;;;;;5051145;28;20464;-95
2021/03/27 07:52:04;;;;;;;12.20;10.90;;;12.10;99.90;;;;;;5046107;28;20473;-96
2021/03/27 07:55:33;;;;;;;12.27;10.90;;;11.90;99.90;;;;;;5059944;28;20494;-96
2021/03/27 07:58:17;;;;;;;13.00;11.50;;;11.80;99.90;;;;;;5050421;28;20528;-92
2021/03/27 08:01:03;;;;;;;14.40;11.47;;;11.60;99.90;;;;;;5053504;28;20863;-91
2021/03/27 08:03:50;;;;;;;13.07;11.50;;;11.40;99.90;;;;;;5058641;28;20482;-96
2021/03/27 08:06:28;;;;;;;18.03;12.23;;;11.30;99.90;;;;;;5064447;28;21170;-96
2021/03/27 08:09:14;;;;;;;13.03;11.57;;;11.10;99.90;;;;;;5055498;28;20444;-86
2021/03/27 08:12:00;;;;;;;13.47;11.63;;;11.00;99.90;;;;;;5051068;28;20448;-86
2021/03/27 08:14:43;;;;;;;15.37;12.43;;;10.90;99.90;;;;;;5052762;28;20449;-89
2021/03/27 08:17:29;;;;;;;13.87;11.80;;;10.80;99.90;;;;;;5059608;28;21003;-94
2021/03/27 08:20:30;;;;;;;12.50;10.80;;;10.80;99.90;;;;;;5055039;28;20494;-95
2021/03/27 08:23:10;;;;;;;5.57;5.00;;;10.80;99.90;;;;;;5023391;28;20519;-94
2021/03/27 08:25:41;;;;;;;3.20;2.90;;;10.60;99.90;;;;;;5055338;28;20447;-95
2021/03/27 08:28:37;;;;;;;4.23;2.23;;;10.50;99.90;;;;;;5056043;28;20463;-96
2021/03/27 08:31:24;;;;;;;1.47;1.30;;;10.30;99.90;;;;;;5049719;28;20575;-90
2021/03/27 08:34:29;;;;;;;1.30;1.20;;;10.20;99.90;;;;;;5041875;28;20452;-87
2021/03/27 08:37:15;;;;;;;1.53;0.83;;;10.00;99.90;;;;;;5052991;28;20455;-88
2021/03/27 08:40:21;;;;;;;1.73;0.97;;;10.00;99.90;;;;;;5039894;28;20456;-87
2021/03/27 08:43:21;;;;;;;0.90;0.70;;;10.00;99.90;;;;;;5053176;28;20476;-90
2021/03/27 08:46:32;;;;;;;1.73;1.33;;;9.90;99.90;;;;;;5042644;28;20535;-92
2021/03/27 08:49:46;;;;;;;0.80;0.70;;;10.00;99.90;;;;;;5052770;28;20940;-89
2021/03/27 08:52:35;;;;;;;0.90;0.80;;;9.90;99.90;;;;;;5045305;28;20491;-89
2021/03/27 08:55:23;;;;;;;1.13;0.80;;;9.70;99.90;;;;;;5039481;28;20551;-89
2021/03/27 08:58:16;;;;;;;2.50;1.17;;;9.60;99.90;;;;;;5051784;28;20484;-88
2021/03/27 09:01:21;;;;;;;1.00;0.90;;;9.50;99.90;;;;;;5051079;28;20998;-93
2021/03/27 09:04:25;;;;;;;1.10;1.00;;;9.20;99.90;;;;;;5042473;28;20565;-95
2021/03/27 09:07:12;;;;;;;1.30;0.90;;;9.10;99.90;;;;;;5051365;28;20789;-94
2021/03/27 09:10:06;;;;;;;1.40;1.10;;;9.00;99.90;;;;;;5032753;28;20448;-91
2021/03/27 09:12:58;;;;;;;1.10;1.00;;;8.80;99.90;;;;;;5053661;28;20483;-94
2021/03/27 09:15:43;;;;;;;1.17;1.07;;;8.80;99.90;;;;;;5048227;28;20512;-94
2021/03/27 09:18:31;;;;;;;4.20;1.20;;;8.80;99.90;;;;;;5045811;28;20531;-90
2021/03/27 09:21:36;;;;;;;1.20;1.10;;;8.70;99.90;;;;;;5053482;28;20504;-89
2021/03/27 09:24:14;;;;;;;1.37;1.27;;;8.70;99.90;;;;;;5049494;28;20568;-87
2021/03/27 09:26:57;;;;;;;1.33;1.23;;;8.60;99.90;;;;;;5053925;28;20452;-87
2021/03/27 09:29:44;;;;;;;1.50;1.27;;;8.50;99.90;;;;;;5054311;28;20522;-88
2021/03/27 09:32:32;;;;;;;1.50;1.20;;;8.50;99.90;;;;;;5056191;28;20448;-89
2021/03/27 09:35:24;;;;;;;1.50;1.40;;;8.50;99.90;;;;;;5055655;28;20451;-88
2021/03/27 09:38:07;;;;;;;2.47;1.80;;;8.50;99.90;;;;;;5054674;28;20451;-88
2021/03/27 09:40:45;;;;;;;1.47;1.37;;;8.50;99.90;;;;;;5056055;28;20862;-88
2021/03/27 09:43:43;;;;;;;1.40;1.30;;;8.60;99.90;;;;;;5054423;28;20475;-88
2021/03/27 09:46:16;;;;;;;1.37;1.27;;;8.60;99.90;;;;;;5054079;28;20609;-88
2021/03/27 09:48:53;;;;;;;1.80;1.47;;;8.70;99.90;;;;;;5056047;28;20434;-83
2021/03/27 09:51:25;;;;;;;1.33;1.23;;;8.80;99.90;;;;;;5055997;28;20472;-83
2021/03/27 09:54:02;;;;;;;1.53;1.43;;;9.00;99.90;;;;;;5055671;28;20539;-82
2021/03/27 09:56:37;;;;;;;1.50;1.40;;;9.30;99.90;;;;;;5055575;28;20463;-83
2021/03/27 09:59:19;;;;;;;1.57;1.47;;;9.70;99.90;;;;;;5055643;28;20537;-83
2021/03/27 10:01:52;;;;;;;1.93;1.37;;;10.10;99.90;;;;;;5055642;28;20470;-83
2021/03/27 10:04:31;;;;;;;1.50;1.40;;;10.40;99.90;;;;;;5055466;28;21165;-83
2021/03/27 10:07:17;;;;;;;1.53;1.20;;;10.70;99.90;;;;;;5055838;28;20450;-83
2021/03/27 10:10:14;;;;;;;1.70;1.60;;;10.90;99.90;;;;;;5039931;28;20966;-83
2021/03/27 10:12:52;;;;;;;1.80;1.67;;;11.10;99.90;;;;;;5055627;28;20815;-83
2021/03/27 10:15:23;;;;;;;2.10;2.00;;;11.00;99.90;;;;;;5053434;28;20498;-83
2021/03/27 10:17:56;;;;;;;1.70;1.60;;;10.90;99.90;;;;;;5054913;28;20902;-83
2021/03/27 10:20:31;;;;;;;1.77;1.67;;;10.90;99.90;;;;;;5055541;28;20943;-82
2021/03/27 10:23:04;;;;;;;2.17;2.07;;;11.00;99.90;;;;;;5055514;28;20475;-82
2021/03/27 10:25:35;;;;;;;2.00;1.90;;;11.10;99.90;;;;;;5055455;28;20455;-82
2021/03/27 10:28:17;;;;;;;2.20;1.90;;;11.30;99.90;;;;;;5055410;28;20445;-82
2021/03/27 10:30:53;;;;;;;2.33;2.23;;;11.40;99.90;;;;;;5055439;28;20531;-84
2021/03/27 10:33:22;;;;;;;2.67;2.47;;;11.50;99.90;;;;;;5055515;28;20448;-83
2021/03/27 10:36:28;;;;;;;3.00;2.70;;;11.40;99.90;;;;;;5055470;28;20456;-83
2021/03/27 10:39:21;;;;;;;2.27;2.00;;;11.50;99.90;;;;;;5054684;28;21092;-84
2021/03/27 10:42:25;;;;;;;2.93;2.57;;;11.70;99.90;;;;;;5055258;28;20486;-84
2021/03/27 10:45:11;;;;;;;3.00;2.80;;;11.90;99.90;;;;;;5054978;28;20536;-83
2021/03/27 10:47:40;;;;;;;3.30;2.90;;;11.90;99.90;;;;;;5055198;28;20448;-84
2021/03/27 10:50:13;;;;;;;3.20;3.00;;;12.10;99.90;;;;;;5038837;28;20537;-84
2021/03/27 10:53:00;;;;;;;3.60;2.90;;;12.20;99.90;;;;;;5058190;28;20568;-84
2021/03/27 10:56:10;;;;;;;3.00;2.80;;;12.30;99.90;;;;;;5050239;28;20480;-82
2021/03/27 10:58:52;;;;;;;2.97;2.80;;;12.30;99.90;;;;;;5041526;28;20510;-83
2021/03/27 11:01:49;;;;;;;4.23;2.73;;;12.10;99.90;;;;;;5047657;28;20475;-82
2021/03/27 11:04:38;;;;;;;3.43;2.40;;;12.00;99.90;;;;;;5052087;28;20476;-82
2021/03/27 11:07:37;;;;;;;2.83;2.63;;;11.90;99.90;;;;;;5054406;28;20445;-83
2021/03/27 11:10:41;;;;;;;4.10;2.30;;;11.70;99.90;;;;;;5054373;28;20476;-82
2021/03/27 11:13:54;;;;;;;2.90;2.70;;;11.50;99.90;;;;;;5052883;28;20448;-83
2021/03/27 11:16:33;;;;;;;2.80;2.43;;;11.30;99.90;;;;;;5039479;28;20448;-83
2021/03/27 11:19:25;;;;;;;2.67;2.27;;;11.30;99.90;;;;;;5053020;28;20463;-84
2021/03/27 11:22:23;;;;;;;2.30;2.20;;;11.20;99.90;;;;;;5044761;28;20488;-84
2021/03/27 11:25:12;;;;;;;2.33;2.07;;;11.40;99.90;;;;;;5053913;28;20922;-83
2021/03/27 11:27:59;;;;;;;2.70;2.50;;;11.40;99.90;;;;;;5051726;28;20495;-84
2021/03/27 11:30:34;;;;;;;3.30;3.00;;;11.30;99.90;;;;;;5040648;28;20765;-84
2021/03/27 11:33:10;;;;;;;2.57;2.37;;;11.10;99.90;;;;;;5053711;28;20452;-84
2021/03/27 11:35:42;;;;;;;2.77;2.57;;;10.90;99.90;;;;;;5052838;28;20448;-84
2021/03/27 11:38:23;;;;;;;12.40;3.97;;;10.70;99.90;;;;;;5037948;28;20524;-85
2021/03/27 11:41:00;;;;;;;3.60;3.30;;;10.60;99.90;;;;;;5053735;28;20447;-85
2021/03/27 11:43:55;;;;;;;3.40;3.10;;;10.50;99.90;;;;;;5049808;28;20476;-84
2021/03/27 11:46:30;;;;;;;3.40;3.10;;;10.50;99.90;;;;;;5039407;28;20989;-84
2021/03/27 11:49:09;;;;;;;3.20;2.90;;;10.60;99.90;;;;;;5053093;28;20502;-85
2021/03/27 11:51:41;;;;;;;5.10;2.73;;;10.80;99.90;;;;;;5053734;28;20444;-84
2021/03/27 11:54:28;;;;;;;3.03;2.73;;;11.00;99.90;;;;;;5045687;28;20476;-82
2021/03/27 11:57:24;;;;;;;6.20;2.90;;;11.10;99.90;;;;;;5063082;28;20451;-83
2021/03/27 12:02:53;;;;;;;3.27;2.43;;;11.20;99.90;;;;;;5053562;28;20847;-82
2021/03/27 12:05:25;;;;;;;4.77;2.90;;;11.10;99.90;;;;;;5053553;28;20452;-83
2021/03/27 12:08:02;;;;;;;2.80;2.60;;;11.10;99.90;;;;;;5053501;28;20436;-82
2021/03/27 12:10:41;;;;;;;2.80;2.60;;;11.10;99.90;;;;;;5053413;28;20527;-82
2021/03/27 12:13:14;;;;;;;3.33;2.67;;;11.20;99.90;;;;;;5053569;28;20490;-83
2021/03/27 12:15:48;;;;;;;3.10;2.90;;;11.50;99.90;;;;;;5050935;28;20535;-83
2021/03/27 12:18:46;;;;;;;3.07;2.77;;;11.90;99.90;;;;;;5037855;28;20445;-82
2021/03/27 12:21:18;;;;;;;5.27;3.70;;;12.30;99.90;;;;;;5053090;28;20453;-84
2021/03/27 12:23:50;;;;;;;3.50;3.20;;;12.50;99.90;;;;;;5052811;28;20534;-83
2021/03/27 12:26:30;;;;;;;2.50;2.30;;;12.50;99.90;;;;;;5052995;28;20487;-82
2021/03/27 12:29:03;;;;;;;2.70;2.50;;;12.40;99.90;;;;;;5053065;28;20939;-82
2021/03/27 12:31:49;;;;;;;3.43;3.20;;;12.20;99.90;;;;;;5052738;28;20463;-83
2021/03/27 12:34:24;;;;;;;3.10;2.67;;;12.10;99.90;;;;;;5037842;28;20858;-83
2021/03/27 12:37:00;;;;;;;2.70;2.50;;;12.00;99.90;;;;;;5052856;28;20530;-83
2021/03/27 12:39:32;;;;;;;3.87;2.87;;;12.00;99.90;;;;;;5039205;28;20927;-83
2021/03/27 12:42:06;;;;;;;2.47;2.30;;;12.10;99.90;;;;;;5043046;28;20557;-83
2021/03/27 12:44:36;;;;;;;5.10;3.10;;;12.40;99.90;;;;;;5045630;28;20476;-83
2021/03/27 12:47:20;;;;;;;3.50;2.33;;;12.70;99.90;;;;;;5043436;28;20510;-83
2021/03/27 12:50:01;;;;;;;2.43;2.23;;;13.00;99.90;;;;;;5052959;28;20445;-82
2021/03/27 12:52:42;;;;;;;3.93;2.07;;;13.20;99.90;;;;;;5051400;28;20451;-82
2021/03/27 12:55:24;;;;;;;1.90;1.80;;;13.40;99.90;;;;;;5044305;28;20476;-83
2021/03/27 12:57:57;;;;;;;2.60;2.17;;;13.50;99.90;;;;;;5050272;28;20447;-83
2021/03/27 13:00:50;;;;;;;1.70;1.60;;;13.60;99.90;;;;;;5052042;28;20448;-83
2021/03/27 13:03:55;;;;;;;2.87;1.60;;;13.50;99.90;;;;;;5050918;28;20472;-83
2021/03/27 13:06:34;;;;;;;2.50;1.57;;;13.50;99.90;;;;;;5051563;28;20455;-83
2021/03/27 13:09:22;;;;;;;1.73;1.30;;;13.50;99.90;;;;;;5051317;28;21044;-83
2021/03/27 13:11:53;;;;;;;2.70;1.50;;;13.40;99.90;;;;;;5044900;28;20541;-84
2021/03/27 13:15:07;;;;;;;2.07;1.87;;;13.10;99.90;;;;;;5049070;28;20452;-83
2021/03/27 13:17:46;;;;;;;2.00;1.77;;;12.50;99.90;;;;;;5047068;28;20451;-83
2021/03/27 13:20:20;;;;;;;1.40;1.20;;;11.80;99.90;;;;;;5050542;28;20452;-83
2021/03/27 13:22:52;;;;;;;1.83;1.57;;;11.20;99.90;;;;;;5052225;28;20485;-83
2021/03/27 13:25:25;;;;;;;2.10;1.50;;;10.80;99.90;;;;;;5052270;28;20458;-83
2021/03/27 13:27:59;;;;;;;7.30;1.87;;;10.30;99.90;;;;;;5052247;28;20445;-83
2021/03/27 13:30:29;;;;;;;2.00;1.50;;;10.10;99.90;;;;;;5052367;28;20448;-82
2021/03/27 13:33:27;;;;;;;2.03;1.67;;;10.00;99.90;;;;;;5052171;28;20460;-83
2021/03/27 13:36:13;;;;;;;1.97;1.77;;;10.00;99.90;;;;;;5043749;28;20464;-83
2021/03/27 13:38:45;;;;;;;1.87;1.37;;;9.80;99.90;;;;;;5052328;28;20531;-82
2021/03/27 13:41:41;;;;;;;4.07;1.60;;;9.80;99.90;;;;;;5052187;28;20444;-82
2021/03/27 13:44:11;;;;;;;5.27;1.80;;;9.80;99.90;;;;;;5035668;28;20994;-83
2021/03/27 13:46:43;;;;;;;2.07;1.70;;;9.80;99.90;;;;;;5051993;28;20955;-82
2021/03/27 13:49:22;;;;;;;1.67;1.57;;;9.80;99.90;;;;;;5052231;28;20448;-83
2021/03/27 13:51:53;;;;;;;2.00;1.70;;;9.80;99.90;;;;;;5051985;28;20490;-83
2021/03/27 13:54:36;;;;;;;1.90;1.60;;;9.80;99.90;;;;;;5051812;28;20471;-82
2021/03/27 13:57:11;;;;;;;2.90;1.40;;;9.90;99.90;;;;;;5051803;28;20981;-83
2021/03/27 13:59:45;;;;;;;1.60;0.80;;;10.00;99.90;;;;;;5052176;28;20451;-83
2021/03/27 14:02:44;;;;;;;1.10;0.90;;;9.90;99.90;;;;;;5036264;28;20479;-85